createdAt,value
2019-01-20T00:01:12.856Z,-5.60
2019-01-20T00:03:38.666Z,-5.63
2019-01-20T00:06:04.503Z,-5.66
2019-01-20T00:08:30.335Z,-5.76
2019-01-20T00:10:56.182Z,-5.72
2019-01-20T00:13:22.013Z,-5.77
2019-01-20T00:15:47.863Z,-5.81
2019-01-20T00:18:13.726Z,-5.84
2019-01-20T00:20:39.595Z,-5.93
2019-01-20T00:23:05.438Z,-5.94
2019-01-20T00:25:31.354Z,-5.93
2019-01-20T00:27:57.207Z,-5.94
2019-01-20T00:30:42.948Z,-5.96
2019-01-20T00:33:08.754Z,-5.96
2019-01-20T00:35:34.591Z,-5.96
2019-01-20T00:38:00.455Z,-5.97
2019-01-20T00:40:26.304Z,-5.93
2019-01-20T00:42:52.239Z,-6.02
2019-01-20T00:45:18.168Z,-6.09
2019-01-20T00:47:44.010Z,-6.12
2019-01-20T00:50:51.489Z,-6.16
2019-01-20T00:53:17.328Z,-6.22
2019-01-20T00:55:43.149Z,-6.30
2019-01-20T00:58:09.200Z,-6.21
2019-01-20T01:00:35.002Z,-6.29
2019-01-20T01:03:01.065Z,-6.39
2019-01-20T01:06:08.542Z,-6.42
2019-01-20T01:08:34.383Z,-6.59
2019-01-20T01:11:00.220Z,-6.78
2019-01-20T01:13:26.071Z,-6.75
2019-01-20T01:15:51.893Z,-6.75
2019-01-20T01:18:17.755Z,-6.74
2019-01-20T01:20:43.602Z,-6.71
2019-01-20T01:23:51.066Z,-6.71
2019-01-20T01:26:16.872Z,-6.78
2019-01-20T01:28:42.707Z,-6.76
2019-01-20T01:31:08.546Z,-6.78
2019-01-20T01:33:34.355Z,-6.82
2019-01-20T01:36:00.181Z,-6.91
2019-01-20T01:38:26.014Z,-7.02
2019-01-20T01:40:51.865Z,-7.06
2019-01-20T01:43:17.690Z,-7.00
2019-01-20T01:45:43.549Z,-7.12
2019-01-20T01:48:09.376Z,-7.07
2019-01-20T01:50:35.223Z,-7.05
2019-01-20T01:53:01.040Z,-7.07
2019-01-20T01:55:26.903Z,-7.19
2019-01-20T01:57:52.732Z,-7.25
2019-01-20T02:01:00.205Z,-7.22
2019-01-20T02:03:26.023Z,-7.22
2019-01-20T02:05:51.870Z,-7.28
2019-01-20T02:08:17.717Z,-7.39
2019-01-20T02:10:43.575Z,-7.40
2019-01-20T02:13:09.398Z,-7.41
2019-01-20T02:15:35.377Z,-7.49
2019-01-20T02:18:01.196Z,-7.41
2019-01-20T02:20:27.036Z,-7.46
2019-01-20T02:22:52.968Z,-7.53
2019-01-20T02:25:19.016Z,-7.57
2019-01-20T02:27:44.862Z,-7.55
2019-01-20T02:33:18.362Z,-7.53
2019-01-20T02:35:44.221Z,-7.54
2019-01-20T02:38:10.088Z,-7.54
2019-01-20T02:40:35.998Z,-7.57
2019-01-20T02:43:01.806Z,-7.56
2019-01-20T02:45:27.641Z,-7.53
2019-01-20T02:47:53.456Z,-7.57
2019-01-20T02:50:19.274Z,-7.63
2019-01-20T02:52:45.134Z,-7.67
2019-01-20T02:55:11.126Z,-7.70
2019-01-20T02:57:36.949Z,-7.66
2019-01-20T03:00:22.645Z,-7.65
2019-01-20T03:02:48.793Z,-7.78
2019-01-20T03:05:14.821Z,-7.83
2019-01-20T03:07:40.646Z,-7.88
2019-01-20T03:10:48.117Z,-8.00
2019-01-20T03:13:13.964Z,-8.36
2019-01-20T03:15:39.808Z,-8.34
2019-01-20T03:20:43.310Z,-8.21
2019-01-20T03:23:09.139Z,-8.28
2019-01-20T03:25:34.983Z,-8.20
2019-01-20T03:28:00.793Z,-8.21
2019-01-20T03:30:26.666Z,-8.14
2019-01-20T03:32:52.502Z,-8.18
2019-01-20T03:35:59.974Z,-8.21
2019-01-20T03:38:25.837Z,-8.18
2019-01-20T03:40:51.674Z,-8.24
2019-01-20T03:43:17.510Z,-8.18
2019-01-20T03:45:43.328Z,-8.19
2019-01-20T03:48:09.283Z,-8.12
2019-01-20T03:50:35.125Z,-8.12
2019-01-20T03:53:00.965Z,-8.20
2019-01-20T03:55:26.836Z,-8.17
2019-01-20T03:57:52.665Z,-8.20
2019-01-20T04:01:00.184Z,-8.22
2019-01-20T04:03:26.048Z,-8.26
2019-01-20T04:05:51.861Z,-8.26
2019-01-20T04:08:17.683Z,-8.22
2019-01-20T04:10:43.532Z,-8.27
2019-01-20T04:13:09.372Z,-8.37
2019-01-20T04:15:35.314Z,-8.45
2019-01-20T04:18:01.127Z,-8.36
2019-01-20T04:20:27.082Z,-8.55
2019-01-20T04:22:52.924Z,-8.58
2019-01-20T04:26:00.423Z,-8.74
2019-01-20T04:28:26.255Z,-8.87
2019-01-20T04:30:52.102Z,-8.81
2019-01-20T04:33:17.955Z,-8.83
2019-01-20T04:35:43.794Z,-8.76
2019-01-20T04:38:09.633Z,-8.76
2019-01-20T04:40:35.464Z,-8.80
2019-01-20T04:43:01.279Z,-8.72
2019-01-20T04:45:27.121Z,-8.65
2019-01-20T04:47:52.940Z,-8.70
2019-01-20T04:51:00.489Z,-8.70
2019-01-20T04:56:13.702Z,-8.53
2019-01-20T04:58:39.523Z,-8.53
2019-01-20T05:01:05.474Z,-8.85
2019-01-20T05:03:31.316Z,-8.88
2019-01-20T05:05:57.264Z,-8.97
2019-01-20T05:08:23.088Z,-9.11
2019-01-20T05:10:48.933Z,-9.25
2019-01-20T05:13:14.760Z,-9.18
2019-01-20T05:15:40.571Z,-9.15
2019-01-20T05:18:06.418Z,-9.11
2019-01-20T05:20:32.254Z,-9.03
2019-01-20T05:22:58.215Z,-8.94
2019-01-20T05:25:24.043Z,-8.99
2019-01-20T05:27:49.902Z,-8.95
2019-01-20T05:30:57.355Z,-8.98
2019-01-20T05:33:23.187Z,-8.97
2019-01-20T05:35:49.046Z,-8.99
2019-01-20T05:38:14.869Z,-8.93
2019-01-20T05:40:40.692Z,-8.97
2019-01-20T05:43:06.579Z,-9.02
2019-01-20T05:45:32.412Z,-9.03
2019-01-20T05:47:58.247Z,-9.11
2019-01-20T05:50:24.053Z,-9.36
2019-01-20T05:52:49.883Z,-9.42
2019-01-20T05:55:15.825Z,-9.30
2019-01-20T05:58:23.321Z,-9.25
2019-01-20T06:00:49.262Z,-9.21
2019-01-20T06:03:15.086Z,-9.18
2019-01-20T06:05:40.907Z,-9.18
2019-01-20T06:08:06.700Z,-9.03
2019-01-20T06:10:32.540Z,-9.18
2019-01-20T06:12:58.351Z,-9.46
2019-01-20T06:15:24.295Z,-9.40
2019-01-20T06:17:50.138Z,-9.50
2019-01-20T06:20:57.604Z,-9.42
2019-01-20T06:23:23.482Z,-9.38
2019-01-20T06:25:49.316Z,-9.33
2019-01-20T06:28:15.146Z,-9.37
2019-01-20T06:30:41.052Z,-9.32
2019-01-20T06:33:06.866Z,-9.38
2019-01-20T06:35:32.723Z,-9.34
2019-01-20T06:37:58.634Z,-9.31
2019-01-20T06:40:24.564Z,-9.42
2019-01-20T06:42:50.415Z,-9.61
2019-01-20T06:45:16.256Z,-9.47
2019-01-20T06:47:42.307Z,-9.47
2019-01-20T06:50:49.804Z,-9.50
2019-01-20T06:53:15.620Z,-9.41
2019-01-20T06:55:41.490Z,-9.40
2019-01-20T06:58:07.297Z,-9.43
2019-01-20T07:00:33.226Z,-9.47
2019-01-20T07:02:59.128Z,-9.43
2019-01-20T07:05:24.938Z,-9.49
2019-01-20T07:07:50.779Z,-9.45
2019-01-20T07:10:58.277Z,-9.43
2019-01-20T07:13:24.129Z,-9.48
2019-01-20T07:15:49.999Z,-9.39
2019-01-20T07:20:48.046Z,-9.38
2019-01-20T07:23:13.951Z,-9.33
2019-01-20T07:25:39.775Z,-9.34
2019-01-20T07:28:05.630Z,-9.25
2019-01-20T07:30:31.443Z,-9.31
2019-01-20T07:32:57.286Z,-9.33
2019-01-20T07:35:23.104Z,-9.25
2019-01-20T07:37:48.927Z,-9.25
2019-01-20T07:40:56.415Z,-9.19
2019-01-20T07:43:22.259Z,-9.23
2019-01-20T07:45:48.095Z,-9.31
2019-01-20T07:48:13.909Z,-9.31
2019-01-20T07:50:39.790Z,-9.23
2019-01-20T07:53:05.582Z,-9.17
2019-01-20T07:55:31.458Z,-9.07
2019-01-20T07:57:57.269Z,-9.12
2019-01-20T08:01:04.758Z,-8.94
2019-01-20T08:03:31.049Z,-9.12
2019-01-20T08:05:56.885Z,-8.96
2019-01-20T08:08:22.715Z,-8.91
2019-01-20T08:10:48.568Z,-8.85
2019-01-20T08:13:14.397Z,-8.82
2019-01-20T08:15:40.246Z,-8.71
2019-01-20T08:18:06.098Z,-8.61
2019-01-20T08:20:31.965Z,-8.44
2019-01-20T08:22:57.784Z,-8.35
2019-01-20T08:25:23.737Z,-8.29
2019-01-20T08:27:49.615Z,-8.26
2019-01-20T08:30:57.103Z,-8.15
2019-01-20T08:33:22.922Z,-7.99
2019-01-20T08:35:48.783Z,-7.88
2019-01-20T08:38:14.613Z,-7.88
2019-01-20T08:40:40.460Z,-7.76
2019-01-20T08:43:06.269Z,-7.61
2019-01-20T08:46:13.760Z,-7.60
2019-01-20T08:48:59.560Z,-7.69
2019-01-20T08:51:25.403Z,-7.56
2019-01-20T08:53:51.231Z,-7.47
2019-01-20T08:56:17.063Z,-7.35
2019-01-20T08:58:42.883Z,-7.26
2019-01-20T09:01:08.761Z,-7.17
2019-01-20T09:03:34.589Z,-7.02
2019-01-20T09:06:44.003Z,-6.94
2019-01-20T09:09:09.845Z,-6.80
2019-01-20T09:11:35.675Z,-6.62
2019-01-20T09:14:01.484Z,-6.49
2019-01-20T09:16:27.313Z,-6.50
2019-01-20T09:18:53.296Z,-6.40
2019-01-20T09:21:19.258Z,-6.27
2019-01-20T09:23:45.107Z,-6.07
2019-01-20T09:26:10.998Z,-5.82
2019-01-20T09:28:36.827Z,-5.73
2019-01-20T09:31:02.756Z,-5.63
2019-01-20T09:33:28.597Z,-5.63
2019-01-20T09:35:54.460Z,-5.56
2019-01-20T09:38:20.403Z,-5.37
2019-01-20T09:40:46.310Z,-5.23
2019-01-20T09:43:12.121Z,-5.09
2019-01-20T09:48:11.997Z,-4.98
2019-01-20T09:50:37.856Z,-5.00
2019-01-20T09:53:03.701Z,-4.83
2019-01-20T09:55:29.653Z,-4.67
2019-01-20T09:57:55.475Z,-4.63
2019-01-20T10:01:02.960Z,-4.39
2019-01-20T10:03:28.834Z,-4.33
2019-01-20T10:05:54.693Z,-4.14
2019-01-20T10:08:20.625Z,-3.94
2019-01-20T10:10:46.503Z,-3.99
2019-01-20T10:13:12.335Z,-3.78
2019-01-20T10:15:38.307Z,-3.78
2019-01-20T10:18:04.286Z,-3.69
2019-01-20T10:21:11.759Z,-3.56
2019-01-20T10:23:37.716Z,-3.54
2019-01-20T10:26:03.669Z,-3.63
2019-01-20T10:28:29.527Z,-3.52
2019-01-20T10:30:55.380Z,-3.39
2019-01-20T10:33:21.247Z,-3.38
2019-01-20T10:36:06.974Z,-3.39
2019-01-20T10:38:36.984Z,-3.41
2019-01-20T10:41:00.540Z,-3.43
2019-01-20T10:43:26.465Z,-3.40
2019-01-20T10:45:52.310Z,-3.37
2019-01-20T10:48:18.266Z,-3.45
2019-01-20T10:50:44.101Z,-3.23
2019-01-20T10:53:10.051Z,-3.28
2019-01-20T10:55:35.901Z,-3.28
2019-01-20T10:58:02.103Z,-3.23
2019-01-20T11:01:09.605Z,-3.12
2019-01-20T11:03:35.871Z,-3.00
2019-01-20T11:06:01.807Z,-2.95
2019-01-20T11:08:27.660Z,-3.06
2019-01-20T11:10:53.502Z,-2.95
2019-01-20T11:13:19.326Z,-2.93
2019-01-20T11:15:45.163Z,-2.82
2019-01-20T11:18:10.992Z,-2.72
2019-01-20T11:20:36.826Z,-2.63
2019-01-20T11:23:02.866Z,-2.88
2019-01-20T11:26:10.355Z,-2.79
2019-01-20T11:28:36.226Z,-2.82
2019-01-20T11:31:02.054Z,-2.69
2019-01-20T11:33:27.900Z,-2.71
2019-01-20T11:35:53.752Z,-2.72
2019-01-20T11:38:19.594Z,-2.71
2019-01-20T11:40:45.422Z,-2.86
2019-01-20T11:43:11.265Z,-2.84
2019-01-20T11:45:37.139Z,-2.69
2019-01-20T11:48:03.434Z,-2.75
2019-01-20T11:50:29.312Z,-2.55
2019-01-20T11:53:36.826Z,-2.36
2019-01-20T11:56:44.307Z,-2.56
2019-01-20T11:59:10.145Z,-2.60
2019-01-20T12:01:36.777Z,-2.65
2019-01-20T12:04:44.337Z,-2.55
2019-01-20T12:07:10.185Z,-2.53
2019-01-20T12:09:36.036Z,-2.58
2019-01-20T12:12:01.896Z,-2.65
2019-01-20T12:14:27.768Z,-2.53
2019-01-20T12:16:53.616Z,-2.63
2019-01-20T12:19:19.453Z,-2.62
2019-01-20T12:21:45.302Z,-2.37
2019-01-20T12:24:31.045Z,-2.21
2019-01-20T12:26:56.877Z,-2.21
2019-01-20T12:29:22.724Z,-2.11
2019-01-20T12:31:48.559Z,-2.18
2019-01-20T12:34:14.767Z,-2.30
2019-01-20T12:36:40.637Z,-2.26
2019-01-20T12:39:48.110Z,-2.17
2019-01-20T12:42:13.959Z,-2.09
2019-01-20T12:44:39.926Z,-1.94
2019-01-20T12:47:05.793Z,-1.99
2019-01-20T12:49:31.641Z,-1.97
2019-01-20T12:51:57.583Z,-2.01
2019-01-20T12:54:23.416Z,-1.98
2019-01-20T12:56:49.338Z,-2.16
2019-01-20T12:59:15.197Z,-2.27
2019-01-20T13:01:41.055Z,-2.34
2019-01-20T13:04:06.901Z,-2.19
2019-01-20T13:06:32.878Z,-2.44
2019-01-20T13:08:58.736Z,-2.36
2019-01-20T13:11:24.569Z,-2.40
2019-01-20T13:13:50.418Z,-2.26
2019-01-20T13:16:16.259Z,-2.36
2019-01-20T13:18:42.390Z,-2.46
2019-01-20T13:21:08.231Z,-2.46
2019-01-20T13:23:34.108Z,-2.42
2019-01-20T13:25:59.952Z,-2.52
2019-01-20T13:28:25.959Z,-2.36
2019-01-20T13:30:51.811Z,-2.39
2019-01-20T13:33:17.714Z,-2.40
2019-01-20T13:35:43.590Z,-2.26
2019-01-20T13:38:51.103Z,-2.21
2019-01-20T13:41:16.976Z,-2.30
2019-01-20T13:43:42.843Z,-2.26
2019-01-20T13:46:08.748Z,-2.35
2019-01-20T13:48:34.638Z,-2.43
2019-01-20T13:51:00.493Z,-2.50
2019-01-20T13:53:26.349Z,-2.47
2019-01-20T13:55:52.198Z,-2.51
2019-01-20T13:58:18.170Z,-2.48
2019-01-20T14:03:38.034Z,-2.36
2019-01-20T14:08:44.059Z,-2.35
2019-01-20T14:11:05.660Z,-2.30
2019-01-20T14:13:31.511Z,-2.30
2019-01-20T14:15:57.373Z,-2.37
2019-01-20T14:18:23.385Z,-2.41
2019-01-20T14:20:49.238Z,-2.42
2019-01-20T14:23:15.215Z,-2.43
2019-01-20T14:25:41.156Z,-2.33
2019-01-20T14:28:07.094Z,-2.31
2019-01-20T14:30:33.232Z,-2.26
2019-01-20T14:32:59.232Z,-2.29
2019-01-20T14:35:25.209Z,-2.23
2019-01-20T14:37:51.132Z,-2.23
2019-01-20T14:40:58.640Z,-2.24
2019-01-20T14:43:24.498Z,-2.24
2019-01-20T14:45:50.343Z,-2.14
2019-01-20T14:48:16.259Z,-2.12
2019-01-20T14:50:42.208Z,-2.18
2019-01-20T14:53:08.128Z,-2.19
2019-01-20T14:55:33.948Z,-2.82
2019-01-20T14:58:00.063Z,-2.24
2019-01-20T15:00:45.784Z,-2.36
2019-01-20T15:03:11.776Z,-2.34
2019-01-20T15:05:37.613Z,-2.35
2019-01-20T15:08:45.149Z,-2.47
2019-01-20T15:11:10.990Z,-2.46
2019-01-20T15:13:36.831Z,-2.49
2019-01-20T15:16:02.796Z,-2.44
2019-01-20T15:18:28.627Z,-2.43
2019-01-20T15:20:54.492Z,-2.47
2019-01-20T15:23:20.332Z,-2.50
2019-01-20T15:25:46.174Z,-2.51
2019-01-20T15:28:12.153Z,-2.51
2019-01-20T15:30:38.102Z,-2.53
2019-01-20T15:33:45.627Z,-2.51
2019-01-20T15:36:11.586Z,-2.56
2019-01-20T15:38:37.421Z,-2.59
2019-01-20T15:41:03.470Z,-2.58
2019-01-20T15:43:29.313Z,-2.57
2019-01-20T15:45:55.145Z,-2.54
2019-01-20T15:48:20.998Z,-2.57
2019-01-20T15:50:46.840Z,-2.57
2019-01-20T15:53:12.699Z,-2.56
2019-01-20T15:55:38.569Z,-2.64
2019-01-20T15:58:04.412Z,-2.58
2019-01-20T16:01:11.945Z,-2.56
2019-01-20T16:03:37.787Z,-2.57
2019-01-20T16:06:03.779Z,-2.57
2019-01-20T16:08:49.515Z,-2.62
2019-01-20T16:11:15.453Z,-2.62
2019-01-20T16:13:41.298Z,-2.60
2019-01-20T16:16:07.199Z,-2.62
2019-01-20T16:18:33.094Z,-2.62
2019-01-20T16:20:58.938Z,-2.62
2019-01-20T16:23:24.780Z,-2.61
2019-01-20T16:25:50.730Z,-2.54
2019-01-20T16:28:17.043Z,-2.54
2019-01-20T16:30:44.371Z,-2.55
2019-01-20T16:33:10.235Z,-2.58
2019-01-20T16:35:36.149Z,-2.57
2019-01-20T16:38:43.684Z,-2.61
2019-01-20T16:41:09.766Z,-2.63
2019-01-20T16:43:35.603Z,-2.62
2019-01-20T16:46:01.438Z,-2.59
2019-01-20T16:48:27.468Z,-2.55
2019-01-20T16:50:53.762Z,-2.51
2019-01-20T16:53:19.622Z,-2.52
2019-01-20T16:55:45.607Z,-2.54
2019-01-20T16:58:11.613Z,-2.61
2019-01-20T17:01:19.131Z,-2.61
2019-01-20T17:03:45.015Z,-2.65
2019-01-20T17:06:10.887Z,-2.64
2019-01-20T17:08:36.997Z,-2.69
2019-01-20T17:11:03.079Z,-2.69
2019-01-20T17:13:28.951Z,-2.65
2019-01-20T17:15:54.796Z,-2.71
2019-01-20T17:18:20.777Z,-2.71
2019-01-20T17:20:46.688Z,-2.70
2019-01-20T17:23:12.681Z,-2.74
2019-01-20T17:25:58.445Z,-2.72
2019-01-20T17:28:24.445Z,-2.72
2019-01-20T17:30:50.262Z,-2.76
2019-01-20T17:33:16.271Z,-2.82
2019-01-20T17:35:42.276Z,-2.86
2019-01-20T17:38:08.249Z,-2.84
2019-01-20T17:41:15.878Z,-2.84
2019-01-20T17:43:41.916Z,-2.85
2019-01-20T17:46:07.771Z,-2.84
2019-01-20T17:48:33.654Z,-2.79
2019-01-20T17:50:59.525Z,-2.79
2019-01-20T17:53:25.384Z,-2.83
2019-01-20T17:55:51.238Z,-2.87
2019-01-20T17:58:18.328Z,-2.93
2019-01-20T18:03:22.015Z,-2.93
2019-01-20T18:05:48.071Z,-2.93
2019-01-20T18:08:13.929Z,-2.89
2019-01-20T18:10:40.048Z,-2.91
2019-01-20T18:13:06.005Z,-2.92
2019-01-20T18:15:31.981Z,-2.93
2019-01-20T18:17:58.885Z,-2.87
2019-01-20T18:21:07.419Z,-2.88
2019-01-20T18:23:33.279Z,-2.88
2019-01-20T18:25:59.193Z,-2.93
2019-01-20T18:28:25.024Z,-2.94
2019-01-20T18:30:50.863Z,-2.96
2019-01-20T18:33:16.935Z,-2.96
2019-01-20T18:35:42.869Z,-2.94
2019-01-20T18:38:08.854Z,-2.92
2019-01-20T18:40:34.691Z,-2.96
2019-01-20T18:43:00.568Z,-2.98
2019-01-20T18:46:08.062Z,-3.03
2019-01-20T18:48:33.923Z,-3.02
2019-01-20T18:50:59.765Z,-2.98
2019-01-20T18:53:25.636Z,-3.07
2019-01-20T18:55:51.541Z,-3.03
2019-01-20T18:58:17.433Z,-2.94
2019-01-20T19:01:24.914Z,-2.91
2019-01-20T19:03:50.809Z,-2.95
2019-01-20T19:06:16.673Z,-3.02
2019-01-20T19:08:42.563Z,-3.05
2019-01-20T19:11:08.441Z,-3.01
2019-01-20T19:13:34.452Z,-3.08
2019-01-20T19:16:00.559Z,-3.05
2019-01-20T19:18:26.419Z,-3.03
2019-01-20T19:20:52.557Z,-3.06
2019-01-20T19:23:18.503Z,-3.08
2019-01-20T19:25:44.380Z,-3.05
2019-01-20T19:28:10.333Z,-3.10
2019-01-20T19:30:36.226Z,-3.08
2019-01-20T19:33:02.407Z,-3.07
2019-01-20T19:35:28.492Z,-3.04
2019-01-20T19:37:54.399Z,-3.02
2019-01-20T19:40:20.426Z,-3.05
2019-01-20T19:42:46.282Z,-3.06
2019-01-20T19:45:53.864Z,-3.04
2019-01-20T19:48:20.405Z,-3.12
2019-01-20T19:50:47.527Z,-3.06
2019-01-20T19:53:13.378Z,-3.08
2019-01-20T19:55:39.285Z,-3.09
2019-01-20T19:58:05.147Z,-3.12
2019-01-20T20:01:12.647Z,-3.08
2019-01-20T20:03:38.845Z,-3.05
2019-01-20T20:06:04.793Z,-3.07
2019-01-20T20:08:30.804Z,-3.09
2019-01-20T20:10:56.692Z,-3.53
2019-01-20T20:13:22.719Z,-3.12
2019-01-20T20:15:48.568Z,-3.10
2019-01-20T20:18:14.461Z,-3.11
2019-01-20T20:20:40.434Z,-3.03
2019-01-20T20:23:06.323Z,-2.99
2019-01-20T20:25:32.343Z,-3.07
2019-01-20T20:27:58.276Z,-3.00
2019-01-20T20:31:05.777Z,-3.03
2019-01-20T20:33:31.628Z,-2.98
2019-01-20T20:35:57.515Z,-3.01
2019-01-20T20:38:23.365Z,-3.05
2019-01-20T20:40:49.199Z,-3.01
2019-01-20T20:43:15.044Z,-3.01
2019-01-20T20:45:40.957Z,-3.05
2019-01-20T20:48:06.816Z,-3.05
2019-01-20T20:50:32.648Z,-2.95
2019-01-20T20:52:58.535Z,-3.00
2019-01-20T20:55:24.373Z,-2.96
2019-01-20T20:57:50.255Z,-2.99
2019-01-20T21:00:36.736Z,-3.04
2019-01-20T21:03:44.270Z,-2.96
2019-01-20T21:06:10.127Z,-2.91
2019-01-20T21:08:36.075Z,-2.89
2019-01-20T21:11:02.042Z,-2.95
2019-01-20T21:13:27.878Z,-2.99
2019-01-20T21:15:53.695Z,-2.98
2019-01-20T21:18:19.540Z,-2.94
2019-01-20T21:20:45.371Z,-2.98
2019-01-20T21:23:12.267Z,-2.95
2019-01-20T21:25:39.095Z,-2.94
2019-01-20T21:28:04.947Z,-2.89
2019-01-20T21:30:30.763Z,-2.88
2019-01-20T21:32:56.721Z,-2.91
2019-01-20T21:35:22.557Z,-2.82
2019-01-20T21:37:48.494Z,-2.88
2019-01-20T21:40:55.965Z,-2.87
2019-01-20T21:43:21.870Z,-2.89
2019-01-20T21:45:47.673Z,-2.79
2019-01-20T21:48:13.540Z,-2.83
2019-01-20T21:50:39.403Z,-2.84
2019-01-20T21:53:05.264Z,-2.87
2019-01-20T21:55:31.125Z,-2.82
2019-01-20T21:57:56.997Z,-2.81
2019-01-20T22:01:04.475Z,-2.74
2019-01-20T22:03:30.318Z,-2.75
2019-01-20T22:05:56.151Z,-2.78
2019-01-20T22:08:21.958Z,-2.77
2019-01-20T22:10:48.190Z,-2.81
2019-01-20T22:13:14.039Z,-2.84
2019-01-20T22:15:39.866Z,-2.83
2019-01-20T22:18:05.684Z,-2.85
2019-01-20T22:20:31.514Z,-2.87
2019-01-20T22:22:57.344Z,-2.84
2019-01-20T22:25:23.445Z,-2.83
2019-01-20T22:27:49.722Z,-2.79
2019-01-20T22:30:57.219Z,-2.81
2019-01-20T22:33:23.038Z,-2.83
2019-01-20T22:35:48.871Z,-2.81
2019-01-20T22:38:14.709Z,-2.81
2019-01-20T22:40:40.526Z,-2.81
2019-01-20T22:43:06.369Z,-2.84
2019-01-20T22:45:32.197Z,-2.84
2019-01-20T22:47:58.056Z,-2.83
2019-01-20T22:50:23.966Z,-2.78
2019-01-20T22:52:49.959Z,-2.78
2019-01-20T22:55:57.391Z,-2.71
2019-01-20T22:58:23.271Z,-2.74
2019-01-20T23:01:30.747Z,-2.80
2019-01-20T23:03:56.580Z,-2.83
2019-01-20T23:06:22.683Z,-2.85
2019-01-20T23:08:48.529Z,-2.77
2019-01-20T23:11:14.373Z,-2.81
2019-01-20T23:13:40.202Z,-2.79
2019-01-20T23:16:06.130Z,-2.80
2019-01-20T23:18:32.081Z,-2.82
2019-01-20T23:20:58.011Z,-2.86
2019-01-20T23:23:23.844Z,-2.82
2019-01-20T23:25:49.773Z,-2.84
2019-01-20T23:28:15.593Z,-2.84
2019-01-20T23:30:41.855Z,-2.84
2019-01-20T23:33:07.684Z,-2.85
2019-01-20T23:35:33.522Z,-2.85
2019-01-20T23:37:59.373Z,-2.80
2019-01-20T23:40:25.210Z,-2.85
2019-01-20T23:42:51.048Z,-2.87
2019-01-20T23:45:16.893Z,-2.88
2019-01-20T23:47:42.729Z,-2.87
2019-01-20T23:50:50.218Z,-2.90
2019-01-20T23:53:16.061Z,-2.88
2019-01-20T23:55:41.911Z,-2.88
2019-01-20T23:58:07.714Z,-2.88
